sensor_id;sensor_type;location;lat;lon;timestamp;P1;durP1;ratioP1;P2;durP2;ratioP2
19621;SDS011;9958;33.196;-97.114;2024-01-06T00:01:02;12.65;;;7.22;;
19621;SDS011;9958;33.196;-97.114;2024-01-06T00:03:31;9.38;;;6.20;;
19621;SDS011;9958;33.196;-97.114;2024-01-06T00:05:59;10.73;;;7.45;;
19621;SDS011;9958;33.196;-97.114;2024-01-06T00:08:27;9.35;;;6.97;;
19621;SDS011;9958;33.196;-97.114;2024-01-06T00:10:56;13.73;;;7.95;;
19621;SDS011;9958;33.196;-97.114;2024-01-06T00:13:26;11.15;;;7.15;;
19621;SDS011;9958;33.196;-97.114;2024-01-06T00:15:54;11.98;;;7.53;;
19621;SDS011;9958;33.196;-97.114;2024-01-06T00:18:22;10.35;;;6.07;;
19621;SDS011;9958;33.196;-97.114;2024-01-06T00:20:51;15.85;;;7.13;;
19621;SDS011;9958;33.196;-97.114;2024-01-06T00:23:19;11.32;;;7.00;;
19621;SDS011;9958;33.196;-97.114;2024-01-06T00:25:47;8.85;;;6.53;;
19621;SDS011;9958;33.196;-97.114;2024-01-06T00:28:15;10.20;;;7.10;;
19621;SDS011;9958;33.196;-97.114;2024-01-06T00:30:45;10.75;;;7.13;;
19621;SDS011;9958;33.196;-97.114;2024-01-06T00:33:14;11.00;;;7.30;;
19621;SDS011;9958;33.196;-97.114;2024-01-06T00:35:42;12.00;;;8.05;;
19621;SDS011;9958;33.196;-97.114;2024-01-06T00:38:10;13.10;;;7.88;;
19621;SDS011;9958;33.196;-97.114;2024-01-06T00:40:39;10.30;;;7.38;;
19621;SDS011;9958;33.196;-97.114;2024-01-06T00:43:07;11.90;;;7.95;;
19621;SDS011;9958;33.196;-97.114;2024-01-06T00:45:35;11.90;;;7.72;;
19621;SDS011;9958;33.196;-97.114;2024-01-06T00:48:06;13.82;;;8.48;;
19621;SDS011;9958;33.196;-97.114;2024-01-06T00:50:34;11.20;;;7.65;;
19621;SDS011;9958;33.196;-97.114;2024-01-06T00:53:03;11.80;;;7.45;;
19621;SDS011;9958;33.196;-97.114;2024-01-06T00:55:31;12.60;;;8.00;;
19621;SDS011;9958;33.196;-97.114;2024-01-06T00:58:00;14.68;;;8.40;;
19621;SDS011;9958;33.196;-97.114;2024-01-06T01:00:28;13.85;;;7.72;;
19621;SDS011;9958;33.196;-97.114;2024-01-06T01:02:56;14.68;;;8.70;;
19621;SDS011;9958;33.196;-97.114;2024-01-06T01:05:26;14.93;;;8.60;;
19621;SDS011;9958;33.196;-97.114;2024-01-06T01:07:54;12.00;;;7.82;;
19621;SDS011;9958;33.196;-97.114;2024-01-06T01:10:23;12.85;;;7.60;;
19621;SDS011;9958;33.196;-97.114;2024-01-06T01:12:51;11.48;;;8.00;;
19621;SDS011;9958;33.196;-97.114;2024-01-06T01:15:19;12.13;;;7.53;;
19621;SDS011;9958;33.196;-97.114;2024-01-06T01:17:48;11.70;;;7.13;;
19621;SDS011;9958;33.196;-97.114;2024-01-06T01:20:16;11.20;;;7.38;;
19621;SDS011;9958;33.196;-97.114;2024-01-06T01:22:46;14.98;;;8.27;;
19621;SDS011;9958;33.196;-97.114;2024-01-06T01:25:14;14.82;;;8.80;;
19621;SDS011;9958;33.196;-97.114;2024-01-06T01:27:43;13.68;;;7.28;;
19621;SDS011;9958;33.196;-97.114;2024-01-06T01:30:11;13.90;;;8.32;;
19621;SDS011;9958;33.196;-97.114;2024-01-06T01:32:40;11.20;;;6.93;;
19621;SDS011;9958;33.196;-97.114;2024-01-06T01:35:08;12.48;;;7.30;;
19621;SDS011;9958;33.196;-97.114;2024-01-06T01:37:36;11.75;;;7.53;;
19621;SDS011;9958;33.196;-97.114;2024-01-06T01:40:07;11.15;;;7.43;;
19621;SDS011;9958;33.196;-97.114;2024-01-06T01:42:36;13.15;;;8.13;;
19621;SDS011;9958;33.196;-97.114;2024-01-06T01:45:04;13.38;;;7.95;;
19621;SDS011;9958;33.196;-97.114;2024-01-06T01:47:33;12.80;;;7.20;;
19621;SDS011;9958;33.196;-97.114;2024-01-06T01:50:01;11.57;;;7.53;;
19621;SDS011;9958;33.196;-97.114;2024-01-06T01:52:31;12.23;;;7.50;;
19621;SDS011;9958;33.196;-97.114;2024-01-06T01:55:01;14.35;;;8.25;;
19621;SDS011;9958;33.196;-97.114;2024-01-06T01:57:30;13.07;;;7.57;;
19621;SDS011;9958;33.196;-97.114;2024-01-06T01:59:59;16.30;;;9.02;;
19621;SDS011;9958;33.196;-97.114;2024-01-06T02:02:28;14.80;;;8.48;;
19621;SDS011;9958;33.196;-97.114;2024-01-06T02:04:57;15.00;;;8.68;;
19621;SDS011;9958;33.196;-97.114;2024-01-06T02:07:26;12.15;;;8.07;;
19621;SDS011;9958;33.196;-97.114;2024-01-06T02:09:55;13.85;;;7.72;;
19621;SDS011;9958;33.196;-97.114;2024-01-06T02:12:23;12.75;;;8.20;;
19621;SDS011;9958;33.196;-97.114;2024-01-06T02:14:53;14.90;;;9.07;;
19621;SDS011;9958;33.196;-97.114;2024-01-06T02:17:21;14.30;;;8.00;;
19621;SDS011;9958;33.196;-97.114;2024-01-06T02:19:51;14.27;;;8.85;;
19621;SDS011;9958;33.196;-97.114;2024-01-06T02:22:21;10.30;;;7.72;;
19621;SDS011;9958;33.196;-97.114;2024-01-06T02:24:49;13.93;;;8.35;;
19621;SDS011;9958;33.196;-97.114;2024-01-06T02:27:17;14.32;;;8.27;;
19621;SDS011;9958;33.196;-97.114;2024-01-06T02:29:45;16.13;;;8.07;;
19621;SDS011;9958;33.196;-97.114;2024-01-06T02:32:14;19.13;;;9.23;;
19621;SDS011;9958;33.196;-97.114;2024-01-06T02:34:42;16.95;;;9.10;;
19621;SDS011;9958;33.196;-97.114;2024-01-06T02:37:10;13.13;;;8.60;;
19621;SDS011;9958;33.196;-97.114;2024-01-06T02:39:40;13.80;;;8.57;;
19621;SDS011;9958;33.196;-97.114;2024-01-06T02:42:08;14.52;;;8.52;;
19621;SDS011;9958;33.196;-97.114;2024-01-06T02:44:37;14.75;;;8.60;;
19621;SDS011;9958;33.196;-97.114;2024-01-06T02:47:05;16.58;;;9.23;;
19621;SDS011;9958;33.196;-97.114;2024-01-06T02:49:33;12.95;;;8.68;;
19621;SDS011;9958;33.196;-97.114;2024-01-06T02:52:02;18.02;;;9.07;;
19621;SDS011;9958;33.196;-97.114;2024-01-06T02:54:31;17.92;;;8.68;;
19621;SDS011;9958;33.196;-97.114;2024-01-06T02:57:00;14.60;;;9.57;;
19621;SDS011;9958;33.196;-97.114;2024-01-06T02:59:29;16.23;;;9.85;;
19621;SDS011;9958;33.196;-97.114;2024-01-06T03:01:58;14.23;;;8.93;;
19621;SDS011;9958;33.196;-97.114;2024-01-06T03:04:26;14.15;;;8.95;;
19621;SDS011;9958;33.196;-97.114;2024-01-06T03:06:54;14.05;;;8.68;;
19621;SDS011;9958;33.196;-97.114;2024-01-06T03:09:23;12.50;;;8.73;;
19621;SDS011;9958;33.196;-97.114;2024-01-06T03:11:51;12.48;;;8.13;;
19621;SDS011;9958;33.196;-97.114;2024-01-06T03:14:21;12.75;;;9.07;;
19621;SDS011;9958;33.196;-97.114;2024-01-06T03:16:49;15.18;;;8.93;;
19621;SDS011;9958;33.196;-97.114;2024-01-06T03:19:18;15.68;;;9.05;;
19621;SDS011;9958;33.196;-97.114;2024-01-06T03:21:46;15.15;;;9.18;;
19621;SDS011;9958;33.196;-97.114;2024-01-06T03:24:14;15.70;;;10.40;;
19621;SDS011;9958;33.196;-97.114;2024-01-06T03:26:43;18.10;;;9.60;;
19621;SDS011;9958;33.196;-97.114;2024-01-06T03:29:11;17.83;;;9.02;;
19621;SDS011;9958;33.196;-97.114;2024-01-06T03:31:43;13.70;;;8.45;;
19621;SDS011;9958;33.196;-97.114;2024-01-06T03:34:12;16.15;;;9.95;;
19621;SDS011;9958;33.196;-97.114;2024-01-06T03:36:40;14.15;;;8.65;;
19621;SDS011;9958;33.196;-97.114;2024-01-06T03:39:09;11.20;;;6.45;;
19621;SDS011;9958;33.196;-97.114;2024-01-06T03:41:38;13.45;;;7.75;;
19621;SDS011;9958;33.196;-97.114;2024-01-06T03:44:07;9.65;;;5.28;;
19621;SDS011;9958;33.196;-97.114;2024-01-06T03:46:35;4.88;;;3.03;;
19621;SDS011;9958;33.196;-97.114;2024-01-06T03:49:05;7.40;;;3.45;;
19621;SDS011;9958;33.196;-97.114;2024-01-06T03:51:33;4.63;;;3.00;;
19621;SDS011;9958;33.196;-97.114;2024-01-06T03:54:01;4.53;;;2.90;;
19621;SDS011;9958;33.196;-97.114;2024-01-06T03:56:30;3.83;;;2.80;;
19621;SDS011;9958;33.196;-97.114;2024-01-06T03:58:58;3.67;;;2.50;;
19621;SDS011;9958;33.196;-97.114;2024-01-06T04:01:26;4.40;;;2.95;;
19621;SDS011;9958;33.196;-97.114;2024-01-06T04:03:56;2.70;;;2.25;;
19621;SDS011;9958;33.196;-97.114;2024-01-06T04:06:26;3.35;;;2.30;;
19621;SDS011;9958;33.196;-97.114;2024-01-06T04:08:55;2.90;;;2.47;;
19621;SDS011;9958;33.196;-97.114;2024-01-06T04:11:23;3.63;;;2.58;;
19621;SDS011;9958;33.196;-97.114;2024-01-06T04:13:51;2.95;;;2.33;;
19621;SDS011;9958;33.196;-97.114;2024-01-06T04:16:20;3.15;;;2.55;;
19621;SDS011;9958;33.196;-97.114;2024-01-06T04:18:48;3.42;;;2.38;;
19621;SDS011;9958;33.196;-97.114;2024-01-06T04:21:16;4.13;;;2.70;;
19621;SDS011;9958;33.196;-97.114;2024-01-06T04:23:46;3.72;;;2.38;;
19621;SDS011;9958;33.196;-97.114;2024-01-06T04:26:14;5.50;;;3.30;;
19621;SDS011;9958;33.196;-97.114;2024-01-06T04:28:43;3.65;;;2.50;;
19621;SDS011;9958;33.196;-97.114;2024-01-06T04:31:11;3.85;;;2.72;;
19621;SDS011;9958;33.196;-97.114;2024-01-06T04:33:39;3.80;;;2.70;;
19621;SDS011;9958;33.196;-97.114;2024-01-06T04:36:08;4.32;;;2.70;;
19621;SDS011;9958;33.196;-97.114;2024-01-06T04:38:36;5.60;;;2.90;;
19621;SDS011;9958;33.196;-97.114;2024-01-06T04:41:06;4.57;;;2.67;;
19621;SDS011;9958;33.196;-97.114;2024-01-06T04:43:35;5.57;;;3.03;;
19621;SDS011;9958;33.196;-97.114;2024-01-06T04:46:03;3.55;;;2.78;;
19621;SDS011;9958;33.196;-97.114;2024-01-06T04:48:31;4.75;;;2.92;;
19621;SDS011;9958;33.196;-97.114;2024-01-06T04:51:00;4.55;;;2.90;;
19621;SDS011;9958;33.196;-97.114;2024-01-06T04:53:29;3.10;;;2.80;;
19621;SDS011;9958;33.196;-97.114;2024-01-06T04:55:58;3.30;;;2.53;;
19621;SDS011;9958;33.196;-97.114;2024-01-06T04:58:28;3.15;;;2.55;;
19621;SDS011;9958;33.196;-97.114;2024-01-06T05:00:56;3.65;;;3.05;;
19621;SDS011;9958;33.196;-97.114;2024-01-06T05:03:25;3.63;;;2.47;;
19621;SDS011;9958;33.196;-97.114;2024-01-06T05:05:53;3.97;;;3.10;;
19621;SDS011;9958;33.196;-97.114;2024-01-06T05:08:21;3.78;;;2.67;;
19621;SDS011;9958;33.196;-97.114;2024-01-06T05:10:51;5.78;;;3.35;;
19621;SDS011;9958;33.196;-97.114;2024-01-06T05:13:20;3.78;;;3.03;;
19621;SDS011;9958;33.196;-97.114;2024-01-06T05:15:50;4.28;;;2.58;;
19621;SDS011;9958;33.196;-97.114;2024-01-06T05:18:18;2.88;;;2.30;;
19621;SDS011;9958;33.196;-97.114;2024-01-06T05:20:46;5.45;;;2.83;;
19621;SDS011;9958;33.196;-97.114;2024-01-06T05:23:15;4.22;;;3.08;;
19621;SDS011;9958;33.196;-97.114;2024-01-06T05:25:43;3.45;;;2.53;;
19621;SDS011;9958;33.196;-97.114;2024-01-06T05:28:12;2.70;;;2.28;;
19621;SDS011;9958;33.196;-97.114;2024-01-06T05:30:40;3.35;;;2.55;;
19621;SDS011;9958;33.196;-97.114;2024-01-06T05:33:10;2.30;;;2.03;;
19621;SDS011;9958;33.196;-97.114;2024-01-06T05:35:40;4.53;;;2.80;;
19621;SDS011;9958;33.196;-97.114;2024-01-06T05:38:09;3.78;;;2.55;;
19621;SDS011;9958;33.196;-97.114;2024-01-06T05:40:37;3.65;;;2.60;;
19621;SDS011;9958;33.196;-97.114;2024-01-06T05:43:05;2.95;;;2.40;;
19621;SDS011;9958;33.196;-97.114;2024-01-06T05:45:33;3.10;;;2.33;;
19621;SDS011;9958;33.196;-97.114;2024-01-06T05:48:02;2.35;;;1.67;;
19621;SDS011;9958;33.196;-97.114;2024-01-06T05:50:33;2.60;;;1.77;;
19621;SDS011;9958;33.196;-97.114;2024-01-06T05:53:01;1.35;;;1.25;;
19621;SDS011;9958;33.196;-97.114;2024-01-06T05:55:30;1.08;;;1.08;;
19621;SDS011;9958;33.196;-97.114;2024-01-06T05:57:58;4.93;;;1.15;;
19621;SDS011;9958;33.196;-97.114;2024-01-06T06:00:26;0.75;;;0.75;;
19621;SDS011;9958;33.196;-97.114;2024-01-06T06:02:56;0.47;;;0.47;;
19621;SDS011;9958;33.196;-97.114;2024-01-06T06:05:25;0.90;;;0.80;;
19621;SDS011;9958;33.196;-97.114;2024-01-06T06:07:55;0.70;;;0.70;;
19621;SDS011;9958;33.196;-97.114;2024-01-06T06:10:23;0.50;;;0.50;;
19621;SDS011;9958;33.196;-97.114;2024-01-06T06:13:05;0.40;;;0.40;;
19621;SDS011;9958;33.196;-97.114;2024-01-06T06:15:36;0.32;;;0.32;;
19621;SDS011;9958;33.196;-97.114;2024-01-06T06:18:04;0.40;;;0.40;;
19621;SDS011;9958;33.196;-97.114;2024-01-06T06:20:32;0.40;;;0.40;;
19621;SDS011;9958;33.196;-97.114;2024-01-06T06:23:02;0.47;;;0.47;;
19621;SDS011;9958;33.196;-97.114;2024-01-06T06:25:31;0.38;;;0.38;;
19621;SDS011;9958;33.196;-97.114;2024-01-06T06:27:59;0.50;;;0.50;;
19621;SDS011;9958;33.196;-97.114;2024-01-06T06:30:29;0.55;;;0.55;;
19621;SDS011;9958;33.196;-97.114;2024-01-06T06:32:57;0.55;;;0.55;;
19621;SDS011;9958;33.196;-97.114;2024-01-06T06:35:25;0.50;;;0.50;;
19621;SDS011;9958;33.196;-97.114;2024-01-06T06:37:54;0.50;;;0.50;;
19621;SDS011;9958;33.196;-97.114;2024-01-06T06:40:24;0.65;;;0.65;;
19621;SDS011;9958;33.196;-97.114;2024-01-06T06:42:52;0.40;;;0.40;;
19621;SDS011;9958;33.196;-97.114;2024-01-06T06:45:20;0.70;;;0.70;;
19621;SDS011;9958;33.196;-97.114;2024-01-06T06:47:49;0.80;;;0.80;;
19621;SDS011;9958;33.196;-97.114;2024-01-06T06:50:17;0.73;;;0.73;;
19621;SDS011;9958;33.196;-97.114;2024-01-06T06:52:46;0.63;;;0.63;;
19621;SDS011;9958;33.196;-97.114;2024-01-06T06:55:14;0.57;;;0.57;;
19621;SDS011;9958;33.196;-97.114;2024-01-06T06:57:44;0.60;;;0.60;;
19621;SDS011;9958;33.196;-97.114;2024-01-06T07:00:13;0.70;;;0.70;;
19621;SDS011;9958;33.196;-97.114;2024-01-06T07:02:42;0.65;;;0.65;;
19621;SDS011;9958;33.196;-97.114;2024-01-06T07:05:11;0.52;;;0.52;;
19621;SDS011;9958;33.196;-97.114;2024-01-06T07:07:39;0.73;;;0.73;;
19621;SDS011;9958;33.196;-97.114;2024-01-06T07:10:09;0.65;;;0.65;;
19621;SDS011;9958;33.196;-97.114;2024-01-06T07:12:37;0.73;;;0.73;;
19621;SDS011;9958;33.196;-97.114;2024-01-06T07:15:07;0.68;;;0.68;;
19621;SDS011;9958;33.196;-97.114;2024-01-06T07:17:37;0.60;;;0.60;;
19621;SDS011;9958;33.196;-97.114;2024-01-06T07:20:05;0.50;;;0.50;;
19621;SDS011;9958;33.196;-97.114;2024-01-06T07:22:35;0.60;;;0.60;;
19621;SDS011;9958;33.196;-97.114;2024-01-06T07:25:04;0.60;;;0.60;;
19621;SDS011;9958;33.196;-97.114;2024-01-06T07:27:32;0.70;;;0.70;;
19621;SDS011;9958;33.196;-97.114;2024-01-06T07:30:01;0.50;;;0.50;;
19621;SDS011;9958;33.196;-97.114;2024-01-06T07:32:31;0.85;;;0.85;;
19621;SDS011;9958;33.196;-97.114;2024-01-06T07:35:00;0.60;;;0.60;;
19621;SDS011;9958;33.196;-97.114;2024-01-06T07:37:29;0.70;;;0.70;;
19621;SDS011;9958;33.196;-97.114;2024-01-06T07:39:57;0.93;;;0.93;;
19621;SDS011;9958;33.196;-97.114;2024-01-06T07:42:26;1.17;;;0.68;;
19621;SDS011;9958;33.196;-97.114;2024-01-06T07:44:54;1.70;;;0.90;;
19621;SDS011;9958;33.196;-97.114;2024-01-06T07:47:22;0.68;;;0.68;;
19621;SDS011;9958;33.196;-97.114;2024-01-06T07:49:52;1.00;;;0.93;;
19621;SDS011;9958;33.196;-97.114;2024-01-06T07:52:22;0.93;;;0.93;;
19621;SDS011;9958;33.196;-97.114;2024-01-06T07:54:51;1.35;;;0.73;;
19621;SDS011;9958;33.196;-97.114;2024-01-06T07:57:19;0.77;;;0.77;;
19621;SDS011;9958;33.196;-97.114;2024-01-06T07:59:47;0.65;;;0.65;;
19621;SDS011;9958;33.196;-97.114;2024-01-06T08:02:16;0.90;;;0.90;;
19621;SDS011;9958;33.196;-97.114;2024-01-06T08:04:44;1.23;;;1.17;;
19621;SDS011;9958;33.196;-97.114;2024-01-06T08:07:14;0.90;;;0.90;;
19621;SDS011;9958;33.196;-97.114;2024-01-06T08:09:43;1.20;;;1.20;;
19621;SDS011;9958;33.196;-97.114;2024-01-06T08:12:11;1.05;;;0.88;;
19621;SDS011;9958;33.196;-97.114;2024-01-06T08:14:39;0.80;;;0.80;;
19621;SDS011;9958;33.196;-97.114;2024-01-06T08:17:07;0.98;;;0.70;;
19621;SDS011;9958;33.196;-97.114;2024-01-06T08:19:36;1.10;;;1.02;;
19621;SDS011;9958;33.196;-97.114;2024-01-06T08:22:04;0.75;;;0.75;;
19621;SDS011;9958;33.196;-97.114;2024-01-06T08:24:34;1.05;;;1.02;;
19621;SDS011;9958;33.196;-97.114;2024-01-06T08:27:02;0.82;;;0.82;;
19621;SDS011;9958;33.196;-97.114;2024-01-06T08:29:31;1.20;;;1.10;;
19621;SDS011;9958;33.196;-97.114;2024-01-06T08:32:00;1.17;;;1.08;;
19621;SDS011;9958;33.196;-97.114;2024-01-06T08:34:28;0.90;;;0.90;;
19621;SDS011;9958;33.196;-97.114;2024-01-06T08:36:56;0.85;;;0.85;;
19621;SDS011;9958;33.196;-97.114;2024-01-06T08:39:24;0.80;;;0.80;;
19621;SDS011;9958;33.196;-97.114;2024-01-06T08:41:54;1.08;;;1.00;;
19621;SDS011;9958;33.196;-97.114;2024-01-06T08:44:23;1.05;;;1.02;;
19621;SDS011;9958;33.196;-97.114;2024-01-06T08:46:51;0.77;;;0.77;;
19621;SDS011;9958;33.196;-97.114;2024-01-06T08:49:19;1.00;;;1.00;;
19621;SDS011;9958;33.196;-97.114;2024-01-06T08:51:47;1.20;;;1.10;;
19621;SDS011;9958;33.196;-97.114;2024-01-06T08:54:16;1.20;;;1.10;;
19621;SDS011;9958;33.196;-97.114;2024-01-06T08:56:44;1.40;;;1.27;;
19621;SDS011;9958;33.196;-97.114;2024-01-06T08:59:14;1.05;;;1.05;;
19621;SDS011;9958;33.196;-97.114;2024-01-06T09:01:42;0.98;;;0.98;;
19621;SDS011;9958;33.196;-97.114;2024-01-06T09:04:11;1.27;;;1.15;;
19621;SDS011;9958;33.196;-97.114;2024-01-06T09:06:40;2.10;;;1.00;;
19621;SDS011;9958;33.196;-97.114;2024-01-06T09:09:08;0.98;;;0.98;;
19621;SDS011;9958;33.196;-97.114;2024-01-06T09:11:36;1.30;;;1.20;;
19621;SDS011;9958;33.196;-97.114;2024-01-06T09:14:05;1.40;;;1.30;;
19621;SDS011;9958;33.196;-97.114;2024-01-06T09:16:35;1.20;;;1.10;;
19621;SDS011;9958;33.196;-97.114;2024-01-06T09:19:03;1.30;;;1.20;;
19621;SDS011;9958;33.196;-97.114;2024-01-06T09:21:32;1.60;;;1.50;;
19621;SDS011;9958;33.196;-97.114;2024-01-06T09:24:01;1.30;;;1.20;;
19621;SDS011;9958;33.196;-97.114;2024-01-06T09:26:31;1.70;;;1.30;;
19621;SDS011;9958;33.196;-97.114;2024-01-06T09:29:00;1.20;;;1.10;;
19621;SDS011;9958;33.196;-97.114;2024-01-06T09:31:28;1.20;;;1.20;;
19621;SDS011;9958;33.196;-97.114;2024-01-06T09:33:59;1.08;;;1.00;;
19621;SDS011;9958;33.196;-97.114;2024-01-06T09:36:29;1.20;;;1.10;;
19621;SDS011;9958;33.196;-97.114;2024-01-06T09:38:57;0.85;;;0.85;;
19621;SDS011;9958;33.196;-97.114;2024-01-06T09:41:26;1.20;;;1.10;;
19621;SDS011;9958;33.196;-97.114;2024-01-06T09:43:54;1.25;;;1.20;;
19621;SDS011;9958;33.196;-97.114;2024-01-06T09:46:23;1.23;;;1.05;;
19621;SDS011;9958;33.196;-97.114;2024-01-06T09:48:53;1.50;;;1.40;;
19621;SDS011;9958;33.196;-97.114;2024-01-06T09:51:23;1.38;;;1.27;;
19621;SDS011;9958;33.196;-97.114;2024-01-06T09:53:55;1.40;;;1.30;;
19621;SDS011;9958;33.196;-97.114;2024-01-06T09:56:25;1.40;;;1.30;;
19621;SDS011;9958;33.196;-97.114;2024-01-06T09:58:54;1.08;;;1.08;;
19621;SDS011;9958;33.196;-97.114;2024-01-06T10:01:22;1.23;;;1.17;;
19621;SDS011;9958;33.196;-97.114;2024-01-06T10:03:51;1.15;;;1.10;;
19621;SDS011;9958;33.196;-97.114;2024-01-06T10:06:19;1.33;;;1.25;;
19621;SDS011;9958;33.196;-97.114;2024-01-06T10:08:49;1.50;;;1.40;;
19621;SDS011;9958;33.196;-97.114;2024-01-06T10:11:18;1.17;;;1.13;;
19621;SDS011;9958;33.196;-97.114;2024-01-06T10:13:49;1.30;;;1.17;;
19621;SDS011;9958;33.196;-97.114;2024-01-06T10:16:17;1.40;;;1.30;;
19621;SDS011;9958;33.196;-97.114;2024-01-06T10:18:46;1.20;;;1.10;;
19621;SDS011;9958;33.196;-97.114;2024-01-06T10:21:14;1.23;;;1.15;;
19621;SDS011;9958;33.196;-97.114;2024-01-06T10:23:45;1.08;;;1.08;;
19621;SDS011;9958;33.196;-97.114;2024-01-06T10:26:17;1.20;;;1.10;;
19621;SDS011;9958;33.196;-97.114;2024-01-06T10:28:47;1.35;;;1.20;;
19621;SDS011;9958;33.196;-97.114;2024-01-06T10:31:16;1.38;;;1.27;;
19621;SDS011;9958;33.196;-97.114;2024-01-06T10:33:45;1.50;;;1.15;;
19621;SDS011;9958;33.196;-97.114;2024-01-06T10:36:14;0.77;;;0.77;;
19621;SDS011;9958;33.196;-97.114;2024-01-06T10:38:44;1.05;;;1.05;;
19621;SDS011;9958;33.196;-97.114;2024-01-06T10:41:12;0.90;;;0.90;;
19621;SDS011;9958;33.196;-97.114;2024-01-06T10:43:46;1.50;;;1.40;;
19621;SDS011;9958;33.196;-97.114;2024-01-06T10:46:15;1.10;;;1.08;;
19621;SDS011;9958;33.196;-97.114;2024-01-06T10:48:45;0.90;;;0.90;;
19621;SDS011;9958;33.196;-97.114;2024-01-06T10:51:13;1.27;;;1.20;;
19621;SDS011;9958;33.196;-97.114;2024-01-06T10:53:42;1.33;;;1.23;;
19621;SDS011;9958;33.196;-97.114;2024-01-06T10:56:10;1.27;;;1.23;;
19621;SDS011;9958;33.196;-97.114;2024-01-06T10:58:43;1.00;;;0.98;;
19621;SDS011;9958;33.196;-97.114;2024-01-06T11:01:15;0.82;;;0.82;;
19621;SDS011;9958;33.196;-97.114;2024-01-06T11:03:47;1.20;;;1.10;;
19621;SDS011;9958;33.196;-97.114;2024-01-06T11:06:16;0.73;;;0.73;;
19621;SDS011;9958;33.196;-97.114;2024-01-06T11:08:48;1.77;;;0.98;;
19621;SDS011;9958;33.196;-97.114;2024-01-06T11:11:20;0.88;;;0.88;;
19621;SDS011;9958;33.196;-97.114;2024-01-06T11:13:50;0.80;;;0.80;;
19621;SDS011;9958;33.196;-97.114;2024-01-06T11:16:34;1.08;;;0.98;;
19621;SDS011;9958;33.196;-97.114;2024-01-06T11:19:09;0.60;;;0.60;;
19621;SDS011;9958;33.196;-97.114;2024-01-06T11:22:20;0.75;;;0.60;;
19621;SDS011;9958;33.196;-97.114;2024-01-06T11:24:52;0.70;;;0.70;;
19621;SDS011;9958;33.196;-97.114;2024-01-06T11:27:23;0.65;;;0.65;;
19621;SDS011;9958;33.196;-97.114;2024-01-06T11:29:55;0.77;;;0.60;;
19621;SDS011;9958;33.196;-97.114;2024-01-06T11:32:26;1.33;;;1.10;;
19621;SDS011;9958;33.196;-97.114;2024-01-06T11:35:04;1.17;;;1.13;;
19621;SDS011;9958;33.196;-97.114;2024-01-06T11:37:37;0.85;;;0.82;;
19621;SDS011;9958;33.196;-97.114;2024-01-06T11:40:24;0.80;;;0.80;;
19621;SDS011;9958;33.196;-97.114;2024-01-06T11:42:56;1.25;;;0.80;;
19621;SDS011;9958;33.196;-97.114;2024-01-06T11:45:27;1.27;;;0.82;;
19621;SDS011;9958;33.196;-97.114;2024-01-06T11:47:56;0.85;;;0.85;;
19621;SDS011;9958;33.196;-97.114;2024-01-06T11:50:25;0.70;;;0.70;;
19621;SDS011;9958;33.196;-97.114;2024-01-06T11:52:54;0.80;;;0.80;;
19621;SDS011;9958;33.196;-97.114;2024-01-06T11:55:22;1.08;;;1.00;;
19621;SDS011;9958;33.196;-97.114;2024-01-06T11:57:53;0.82;;;0.82;;
19621;SDS011;9958;33.196;-97.114;2024-01-06T12:00:23;1.10;;;1.00;;
19621;SDS011;9958;33.196;-97.114;2024-01-06T12:02:57;0.85;;;0.80;;
19621;SDS011;9958;33.196;-97.114;2024-01-06T12:05:26;1.02;;;1.00;;
19621;SDS011;9958;33.196;-97.114;2024-01-06T12:07:55;2.55;;;1.17;;
19621;SDS011;9958;33.196;-97.114;2024-01-06T12:10:25;1.00;;;1.00;;
19621;SDS011;9958;33.196;-97.114;2024-01-06T12:12:57;1.10;;;1.00;;
19621;SDS011;9958;33.196;-97.114;2024-01-06T12:15:26;1.30;;;1.20;;
19621;SDS011;9958;33.196;-97.114;2024-01-06T12:17:58;1.20;;;1.02;;
19621;SDS011;9958;33.196;-97.114;2024-01-06T12:20:26;1.15;;;1.08;;
19621;SDS011;9958;33.196;-97.114;2024-01-06T12:22:55;1.52;;;1.10;;
19621;SDS011;9958;33.196;-97.114;2024-01-06T12:25:25;1.40;;;1.30;;
19621;SDS011;9958;33.196;-97.114;2024-01-06T12:27:54;1.60;;;1.50;;
19621;SDS011;9958;33.196;-97.114;2024-01-06T12:30:23;1.60;;;1.50;;
19621;SDS011;9958;33.196;-97.114;2024-01-06T12:32:52;2.15;;;1.40;;
19621;SDS011;9958;33.196;-97.114;2024-01-06T12:35:22;3.33;;;1.58;;
19621;SDS011;9958;33.196;-97.114;2024-01-06T12:37:51;1.48;;;1.38;;
19621;SDS011;9958;33.196;-97.114;2024-01-06T12:40:19;2.75;;;1.42;;
19621;SDS011;9958;33.196;-97.114;2024-01-06T12:42:48;1.60;;;1.48;;
19621;SDS011;9958;33.196;-97.114;2024-01-06T12:45:17;1.95;;;1.48;;
19621;SDS011;9958;33.196;-97.114;2024-01-06T12:47:45;2.58;;;1.42;;
19621;SDS011;9958;33.196;-97.114;2024-01-06T12:50:13;2.53;;;1.92;;
19621;SDS011;9958;33.196;-97.114;2024-01-06T12:52:43;2.20;;;1.65;;
19621;SDS011;9958;33.196;-97.114;2024-01-06T12:55:12;2.80;;;1.70;;
19621;SDS011;9958;33.196;-97.114;2024-01-06T12:57:41;1.92;;;1.67;;
19621;SDS011;9958;33.196;-97.114;2024-01-06T13:00:10;1.92;;;1.42;;
19621;SDS011;9958;33.196;-97.114;2024-01-06T13:02:39;1.55;;;1.35;;
19621;SDS011;9958;33.196;-97.114;2024-01-06T13:05:08;2.08;;;1.85;;
19621;SDS011;9958;33.196;-97.114;2024-01-06T13:07:38;2.30;;;1.80;;
19621;SDS011;9958;33.196;-97.114;2024-01-06T13:10:08;2.40;;;1.77;;
19621;SDS011;9958;33.196;-97.114;2024-01-06T13:12:37;1.67;;;1.58;;
19621;SDS011;9958;33.196;-97.114;2024-01-06T13:15:06;2.40;;;2.00;;
19621;SDS011;9958;33.196;-97.114;2024-01-06T13:17:36;1.98;;;1.80;;
19621;SDS011;9958;33.196;-97.114;2024-01-06T13:20:05;3.03;;;2.17;;
19621;SDS011;9958;33.196;-97.114;2024-01-06T13:22:34;2.72;;;1.67;;
19621;SDS011;9958;33.196;-97.114;2024-01-06T13:25:04;2.38;;;2.10;;
19621;SDS011;9958;33.196;-97.114;2024-01-06T13:27:35;2.83;;;2.03;;
19621;SDS011;9958;33.196;-97.114;2024-01-06T13:30:04;3.33;;;2.00;;
19621;SDS011;9958;33.196;-97.114;2024-01-06T13:32:33;3.20;;;2.47;;
19621;SDS011;9958;33.196;-97.114;2024-01-06T13:35:02;2.67;;;2.03;;
19621;SDS011;9958;33.196;-97.114;2024-01-06T13:37:31;2.33;;;1.83;;
19621;SDS011;9958;33.196;-97.114;2024-01-06T13:39:59;3.17;;;2.40;;
19621;SDS011;9958;33.196;-97.114;2024-01-06T13:42:28;2.05;;;1.85;;
19621;SDS011;9958;33.196;-97.114;2024-01-06T13:44:58;2.95;;;2.13;;
19621;SDS011;9958;33.196;-97.114;2024-01-06T13:47:29;2.17;;;1.58;;
19621;SDS011;9958;33.196;-97.114;2024-01-06T13:49:57;2.75;;;2.00;;
19621;SDS011;9958;33.196;-97.114;2024-01-06T13:52:25;2.60;;;2.00;;
19621;SDS011;9958;33.196;-97.114;2024-01-06T13:54:54;4.03;;;2.25;;
19621;SDS011;9958;33.196;-97.114;2024-01-06T13:57:22;3.58;;;2.13;;
19621;SDS011;9958;33.196;-97.114;2024-01-06T13:59:50;3.28;;;2.00;;
19621;SDS011;9958;33.196;-97.114;2024-01-06T14:02:20;4.78;;;2.22;;
19621;SDS011;9958;33.196;-97.114;2024-01-06T14:04:49;2.58;;;1.60;;
19621;SDS011;9958;33.196;-97.114;2024-01-06T14:07:17;2.83;;;2.15;;
19621;SDS011;9958;33.196;-97.114;2024-01-06T14:09:47;3.03;;;1.95;;
19621;SDS011;9958;33.196;-97.114;2024-01-06T14:12:16;2.20;;;1.73;;
19621;SDS011;9958;33.196;-97.114;2024-01-06T14:14:44;2.28;;;2.00;;
19621;SDS011;9958;33.196;-97.114;2024-01-06T14:17:12;3.05;;;1.85;;
19621;SDS011;9958;33.196;-97.114;2024-01-06T14:19:42;1.92;;;1.65;;
19621;SDS011;9958;33.196;-97.114;2024-01-06T14:22:10;2.45;;;2.03;;
19621;SDS011;9958;33.196;-97.114;2024-01-06T14:24:40;2.97;;;2.08;;
19621;SDS011;9958;33.196;-97.114;2024-01-06T14:27:08;3.03;;;2.10;;
19621;SDS011;9958;33.196;-97.114;2024-01-06T14:29:37;2.08;;;1.73;;
19621;SDS011;9958;33.196;-97.114;2024-01-06T14:32:06;3.58;;;2.28;;
19621;SDS011;9958;33.196;-97.114;2024-01-06T14:34:34;2.55;;;1.70;;
19621;SDS011;9958;33.196;-97.114;2024-01-06T14:37:04;5.15;;;2.28;;
19621;SDS011;9958;33.196;-97.114;2024-01-06T14:39:33;2.83;;;1.80;;
19621;SDS011;9958;33.196;-97.114;2024-01-06T14:42:02;2.83;;;1.98;;